sensor_id;sensor_type;location;lat;lon;timestamp;P1;durP1;ratioP1;P2;durP2;ratioP2
19927;SDS011;10126;50.876;4.470;2023-06-01T00:00:48;0.20;;;0.20;;
19927;SDS011;10126;50.876;4.470;2023-06-01T00:02:49;0.20;;;0.20;;
19927;SDS011;10126;50.876;4.470;2023-06-01T00:04:50;0.20;;;0.20;;
19927;SDS011;10126;50.876;4.470;2023-06-01T00:06:52;0.20;;;0.20;;
19927;SDS011;10126;50.876;4.470;2023-06-01T00:08:52;0.20;;;0.20;;
19927;SDS011;10126;50.876;4.470;2023-06-01T00:10:53;0.20;;;0.20;;
19927;SDS011;10126;50.876;4.470;2023-06-01T00:12:54;0.30;;;0.30;;
19927;SDS011;10126;50.876;4.470;2023-06-01T00:14:54;0.20;;;0.20;;
19927;SDS011;10126;50.876;4.470;2023-06-01T00:16:55;0.20;;;0.20;;
19927;SDS011;10126;50.876;4.470;2023-06-01T00:18:57;0.23;;;0.23;;
19927;SDS011;10126;50.876;4.470;2023-06-01T00:21:00;0.23;;;0.23;;
19927;SDS011;10126;50.876;4.470;2023-06-01T00:23:01;0.20;;;0.20;;
19927;SDS011;10126;50.876;4.470;2023-06-01T00:25:02;0.20;;;0.20;;
19927;SDS011;10126;50.876;4.470;2023-06-01T00:27:03;0.30;;;0.30;;
19927;SDS011;10126;50.876;4.470;2023-06-01T00:29:05;0.30;;;0.30;;
19927;SDS011;10126;50.876;4.470;2023-06-01T00:31:05;0.20;;;0.20;;
19927;SDS011;10126;50.876;4.470;2023-06-01T00:33:06;0.30;;;0.30;;
19927;SDS011;10126;50.876;4.470;2023-06-01T00:35:07;0.20;;;0.20;;
19927;SDS011;10126;50.876;4.470;2023-06-01T00:37:08;0.20;;;0.20;;
19927;SDS011;10126;50.876;4.470;2023-06-01T00:39:08;0.30;;;0.30;;
19927;SDS011;10126;50.876;4.470;2023-06-01T00:41:09;0.20;;;0.20;;
19927;SDS011;10126;50.876;4.470;2023-06-01T00:43:10;0.30;;;0.30;;
19927;SDS011;10126;50.876;4.470;2023-06-01T00:45:11;0.20;;;0.20;;
19927;SDS011;10126;50.876;4.470;2023-06-01T00:47:11;0.30;;;0.30;;
19927;SDS011;10126;50.876;4.470;2023-06-01T00:49:12;0.30;;;0.30;;
19927;SDS011;10126;50.876;4.470;2023-06-01T00:51:13;0.30;;;0.30;;
19927;SDS011;10126;50.876;4.470;2023-06-01T00:53:18;0.30;;;0.30;;
19927;SDS011;10126;50.876;4.470;2023-06-01T00:55:20;0.30;;;0.30;;
19927;SDS011;10126;50.876;4.470;2023-06-01T00:57:21;0.20;;;0.20;;
19927;SDS011;10126;50.876;4.470;2023-06-01T00:59:26;0.20;;;0.20;;
19927;SDS011;10126;50.876;4.470;2023-06-01T01:01:27;0.20;;;0.20;;
19927;SDS011;10126;50.876;4.470;2023-06-01T01:03:27;0.20;;;0.20;;
19927;SDS011;10126;50.876;4.470;2023-06-01T01:05:31;0.30;;;0.30;;
19927;SDS011;10126;50.876;4.470;2023-06-01T01:07:35;0.20;;;0.20;;
19927;SDS011;10126;50.876;4.470;2023-06-01T01:10:08;0.30;;;0.30;;
19927;SDS011;10126;50.876;4.470;2023-06-01T01:12:21;0.20;;;0.20;;
19927;SDS011;10126;50.876;4.470;2023-06-01T01:14:39;0.20;;;0.20;;
19927;SDS011;10126;50.876;4.470;2023-06-01T01:17:15;0.30;;;0.30;;
19927;SDS011;10126;50.876;4.470;2023-06-01T01:21:49;0.20;;;0.20;;
19927;SDS011;10126;50.876;4.470;2023-06-01T01:28:32;0.20;;;0.20;;
19927;SDS011;10126;50.876;4.470;2023-06-01T01:30:53;0.30;;;0.30;;
19927;SDS011;10126;50.876;4.470;2023-06-01T01:32:55;0.30;;;0.30;;
19927;SDS011;10126;50.876;4.470;2023-06-01T01:34:58;0.20;;;0.20;;
19927;SDS011;10126;50.876;4.470;2023-06-01T01:37:01;0.30;;;0.30;;
19927;SDS011;10126;50.876;4.470;2023-06-01T01:39:02;0.30;;;0.30;;
19927;SDS011;10126;50.876;4.470;2023-06-01T01:41:03;0.20;;;0.20;;
19927;SDS011;10126;50.876;4.470;2023-06-01T01:43:04;0.30;;;0.30;;
19927;SDS011;10126;50.876;4.470;2023-06-01T01:45:05;0.27;;;0.27;;
19927;SDS011;10126;50.876;4.470;2023-06-01T01:47:49;0.27;;;0.27;;
19927;SDS011;10126;50.876;4.470;2023-06-01T01:51:56;0.20;;;0.20;;
19927;SDS011;10126;50.876;4.470;2023-06-01T01:54:06;0.30;;;0.30;;
19927;SDS011;10126;50.876;4.470;2023-06-01T01:56:09;0.20;;;0.20;;
19927;SDS011;10126;50.876;4.470;2023-06-01T01:58:13;0.30;;;0.30;;
19927;SDS011;10126;50.876;4.470;2023-06-01T02:00:15;0.30;;;0.30;;
19927;SDS011;10126;50.876;4.470;2023-06-01T02:02:17;0.30;;;0.30;;
19927;SDS011;10126;50.876;4.470;2023-06-01T02:04:18;0.17;;;0.17;;
19927;SDS011;10126;50.876;4.470;2023-06-01T02:06:19;0.20;;;0.20;;
19927;SDS011;10126;50.876;4.470;2023-06-01T02:08:20;0.20;;;0.20;;
19927;SDS011;10126;50.876;4.470;2023-06-01T02:10:20;0.20;;;0.20;;
19927;SDS011;10126;50.876;4.470;2023-06-01T02:12:21;0.23;;;0.23;;
19927;SDS011;10126;50.876;4.470;2023-06-01T02:14:22;0.30;;;0.30;;
19927;SDS011;10126;50.876;4.470;2023-06-01T02:16:22;0.20;;;0.20;;
19927;SDS011;10126;50.876;4.470;2023-06-01T02:18:23;0.20;;;0.20;;
19927;SDS011;10126;50.876;4.470;2023-06-01T02:20:25;0.20;;;0.20;;
19927;SDS011;10126;50.876;4.470;2023-06-01T02:22:26;0.30;;;0.30;;
19927;SDS011;10126;50.876;4.470;2023-06-01T02:24:26;0.20;;;0.20;;
19927;SDS011;10126;50.876;4.470;2023-06-01T02:26:27;0.30;;;0.30;;
19927;SDS011;10126;50.876;4.470;2023-06-01T02:28:28;0.20;;;0.20;;
19927;SDS011;10126;50.876;4.470;2023-06-01T02:30:29;0.20;;;0.20;;
19927;SDS011;10126;50.876;4.470;2023-06-01T02:32:30;0.20;;;0.20;;
19927;SDS011;10126;50.876;4.470;2023-06-01T02:34:32;0.30;;;0.30;;
19927;SDS011;10126;50.876;4.470;2023-06-01T02:36:33;0.30;;;0.30;;
19927;SDS011;10126;50.876;4.470;2023-06-01T02:38:34;0.20;;;0.20;;
19927;SDS011;10126;50.876;4.470;2023-06-01T02:40:35;0.20;;;0.20;;
19927;SDS011;10126;50.876;4.470;2023-06-01T02:42:36;0.30;;;0.30;;
19927;SDS011;10126;50.876;4.470;2023-06-01T02:44:38;0.30;;;0.30;;
19927;SDS011;10126;50.876;4.470;2023-06-01T02:46:38;0.20;;;0.20;;
19927;SDS011;10126;50.876;4.470;2023-06-01T02:48:39;0.30;;;0.30;;
19927;SDS011;10126;50.876;4.470;2023-06-01T02:50:40;0.20;;;0.20;;
19927;SDS011;10126;50.876;4.470;2023-06-01T02:52:41;0.20;;;0.20;;
19927;SDS011;10126;50.876;4.470;2023-06-01T02:54:42;0.20;;;0.20;;
19927;SDS011;10126;50.876;4.470;2023-06-01T02:56:42;0.23;;;0.23;;
19927;SDS011;10126;50.876;4.470;2023-06-01T02:58:43;0.30;;;0.30;;
19927;SDS011;10126;50.876;4.470;2023-06-01T03:00:44;0.20;;;0.20;;
19927;SDS011;10126;50.876;4.470;2023-06-01T03:02:44;0.30;;;0.30;;
19927;SDS011;10126;50.876;4.470;2023-06-01T03:04:46;0.20;;;0.20;;
19927;SDS011;10126;50.876;4.470;2023-06-01T03:06:48;0.20;;;0.20;;
19927;SDS011;10126;50.876;4.470;2023-06-01T03:08:49;0.20;;;0.20;;
19927;SDS011;10126;50.876;4.470;2023-06-01T03:10:50;0.30;;;0.30;;
19927;SDS011;10126;50.876;4.470;2023-06-01T03:12:50;0.30;;;0.30;;
19927;SDS011;10126;50.876;4.470;2023-06-01T03:14:51;0.20;;;0.20;;
19927;SDS011;10126;50.876;4.470;2023-06-01T03:16:52;0.30;;;0.30;;
19927;SDS011;10126;50.876;4.470;2023-06-01T03:18:52;0.30;;;0.30;;
19927;SDS011;10126;50.876;4.470;2023-06-01T03:20:56;0.30;;;0.30;;
19927;SDS011;10126;50.876;4.470;2023-06-01T03:22:57;0.30;;;0.30;;
19927;SDS011;10126;50.876;4.470;2023-06-01T03:24:57;0.30;;;0.30;;
19927;SDS011;10126;50.876;4.470;2023-06-01T03:27:00;0.30;;;0.30;;
19927;SDS011;10126;50.876;4.470;2023-06-01T03:29:01;0.20;;;0.20;;
19927;SDS011;10126;50.876;4.470;2023-06-01T03:31:01;0.23;;;0.23;;
19927;SDS011;10126;50.876;4.470;2023-06-01T03:33:02;0.20;;;0.20;;
19927;SDS011;10126;50.876;4.470;2023-06-01T03:35:03;0.20;;;0.20;;
19927;SDS011;10126;50.876;4.470;2023-06-01T03:37:07;0.30;;;0.30;;
19927;SDS011;10126;50.876;4.470;2023-06-01T03:39:08;0.30;;;0.30;;
19927;SDS011;10126;50.876;4.470;2023-06-01T03:41:08;0.30;;;0.30;;
19927;SDS011;10126;50.876;4.470;2023-06-01T03:43:09;0.30;;;0.30;;
19927;SDS011;10126;50.876;4.470;2023-06-01T03:45:11;0.30;;;0.30;;
19927;SDS011;10126;50.876;4.470;2023-06-01T03:47:12;0.20;;;0.20;;
19927;SDS011;10126;50.876;4.470;2023-06-01T03:49:14;0.30;;;0.30;;
19927;SDS011;10126;50.876;4.470;2023-06-01T03:51:15;0.27;;;0.27;;
19927;SDS011;10126;50.876;4.470;2023-06-01T03:53:16;0.20;;;0.20;;
19927;SDS011;10126;50.876;4.470;2023-06-01T03:55:16;0.20;;;0.20;;
19927;SDS011;10126;50.876;4.470;2023-06-01T03:57:17;0.30;;;0.30;;
19927;SDS011;10126;50.876;4.470;2023-06-01T03:59:18;0.30;;;0.30;;
19927;SDS011;10126;50.876;4.470;2023-06-01T04:01:18;0.30;;;0.30;;
19927;SDS011;10126;50.876;4.470;2023-06-01T04:03:20;0.30;;;0.30;;
19927;SDS011;10126;50.876;4.470;2023-06-01T04:05:22;0.30;;;0.30;;
19927;SDS011;10126;50.876;4.470;2023-06-01T04:07:24;0.23;;;0.23;;
19927;SDS011;10126;50.876;4.470;2023-06-01T04:09:25;0.30;;;0.30;;
19927;SDS011;10126;50.876;4.470;2023-06-01T04:11:26;0.30;;;0.30;;
19927;SDS011;10126;50.876;4.470;2023-06-01T04:13:26;0.30;;;0.30;;
19927;SDS011;10126;50.876;4.470;2023-06-01T04:15:27;0.20;;;0.20;;
19927;SDS011;10126;50.876;4.470;2023-06-01T04:17:28;0.20;;;0.20;;
19927;SDS011;10126;50.876;4.470;2023-06-01T04:19:28;0.30;;;0.30;;
19927;SDS011;10126;50.876;4.470;2023-06-01T04:21:29;0.30;;;0.30;;
19927;SDS011;10126;50.876;4.470;2023-06-01T04:23:30;0.30;;;0.30;;
19927;SDS011;10126;50.876;4.470;2023-06-01T04:25:30;0.30;;;0.30;;
19927;SDS011;10126;50.876;4.470;2023-06-01T04:27:32;0.20;;;0.20;;
19927;SDS011;10126;50.876;4.470;2023-06-01T04:29:36;0.30;;;0.30;;
19927;SDS011;10126;50.876;4.470;2023-06-01T04:31:40;0.30;;;0.30;;
19927;SDS011;10126;50.876;4.470;2023-06-01T04:33:41;0.27;;;0.27;;
19927;SDS011;10126;50.876;4.470;2023-06-01T04:35:41;0.20;;;0.20;;
19927;SDS011;10126;50.876;4.470;2023-06-01T04:37:43;0.20;;;0.20;;
19927;SDS011;10126;50.876;4.470;2023-06-01T04:39:44;0.20;;;0.20;;
19927;SDS011;10126;50.876;4.470;2023-06-01T04:41:48;0.30;;;0.30;;
19927;SDS011;10126;50.876;4.470;2023-06-01T04:43:49;0.20;;;0.20;;
19927;SDS011;10126;50.876;4.470;2023-06-01T04:45:53;0.27;;;0.27;;
19927;SDS011;10126;50.876;4.470;2023-06-01T04:47:55;0.20;;;0.20;;
19927;SDS011;10126;50.876;4.470;2023-06-01T04:49:58;0.30;;;0.30;;
19927;SDS011;10126;50.876;4.470;2023-06-01T04:51:58;0.30;;;0.30;;
19927;SDS011;10126;50.876;4.470;2023-06-01T04:54:00;0.30;;;0.30;;
19927;SDS011;10126;50.876;4.470;2023-06-01T04:56:01;0.30;;;0.30;;
19927;SDS011;10126;50.876;4.470;2023-06-01T04:58:02;0.30;;;0.30;;
19927;SDS011;10126;50.876;4.470;2023-06-01T05:00:04;0.30;;;0.30;;
19927;SDS011;10126;50.876;4.470;2023-06-01T05:02:11;0.30;;;0.30;;
19927;SDS011;10126;50.876;4.470;2023-06-01T05:04:12;0.20;;;0.20;;
19927;SDS011;10126;50.876;4.470;2023-06-01T05:06:12;0.30;;;0.30;;
19927;SDS011;10126;50.876;4.470;2023-06-01T05:08:13;0.30;;;0.30;;
19927;SDS011;10126;50.876;4.470;2023-06-01T05:10:15;0.30;;;0.30;;
19927;SDS011;10126;50.876;4.470;2023-06-01T05:12:18;0.30;;;0.30;;
19927;SDS011;10126;50.876;4.470;2023-06-01T05:14:19;0.30;;;0.30;;
19927;SDS011;10126;50.876;4.470;2023-06-01T05:16:20;0.30;;;0.30;;
19927;SDS011;10126;50.876;4.470;2023-06-01T05:18:20;0.20;;;0.20;;
19927;SDS011;10126;50.876;4.470;2023-06-01T05:20:21;0.30;;;0.30;;
19927;SDS011;10126;50.876;4.470;2023-06-01T05:22:22;0.40;;;0.40;;
19927;SDS011;10126;50.876;4.470;2023-06-01T05:24:23;0.30;;;0.30;;
19927;SDS011;10126;50.876;4.470;2023-06-01T05:26:24;0.30;;;0.30;;
19927;SDS011;10126;50.876;4.470;2023-06-01T05:28:25;0.30;;;0.30;;
19927;SDS011;10126;50.876;4.470;2023-06-01T05:30:26;0.30;;;0.30;;
19927;SDS011;10126;50.876;4.470;2023-06-01T05:32:26;0.30;;;0.30;;
19927;SDS011;10126;50.876;4.470;2023-06-01T05:34:27;0.30;;;0.30;;
19927;SDS011;10126;50.876;4.470;2023-06-01T05:36:27;0.30;;;0.30;;
19927;SDS011;10126;50.876;4.470;2023-06-01T05:38:28;0.30;;;0.30;;
19927;SDS011;10126;50.876;4.470;2023-06-01T05:40:29;0.30;;;0.30;;
19927;SDS011;10126;50.876;4.470;2023-06-01T05:42:29;0.40;;;0.40;;
19927;SDS011;10126;50.876;4.470;2023-06-01T05:44:31;0.30;;;0.30;;
19927;SDS011;10126;50.876;4.470;2023-06-01T05:46:32;0.20;;;0.20;;
19927;SDS011;10126;50.876;4.470;2023-06-01T05:48:32;0.40;;;0.40;;
19927;SDS011;10126;50.876;4.470;2023-06-01T05:50:33;0.30;;;0.30;;
19927;SDS011;10126;50.876;4.470;2023-06-01T05:52:34;0.30;;;0.30;;
19927;SDS011;10126;50.876;4.470;2023-06-01T05:54:34;0.30;;;0.30;;
19927;SDS011;10126;50.876;4.470;2023-06-01T05:56:35;0.30;;;0.30;;
19927;SDS011;10126;50.876;4.470;2023-06-01T05:58:40;0.27;;;0.27;;
19927;SDS011;10126;50.876;4.470;2023-06-01T06:00:41;0.40;;;0.40;;
19927;SDS011;10126;50.876;4.470;2023-06-01T06:02:42;0.40;;;0.40;;
19927;SDS011;10126;50.876;4.470;2023-06-01T06:04:43;0.20;;;0.20;;
19927;SDS011;10126;50.876;4.470;2023-06-01T06:06:44;0.30;;;0.30;;
19927;SDS011;10126;50.876;4.470;2023-06-01T06:08:44;0.20;;;0.20;;
19927;SDS011;10126;50.876;4.470;2023-06-01T06:10:45;0.30;;;0.30;;
19927;SDS011;10126;50.876;4.470;2023-06-01T06:12:47;0.30;;;0.30;;
19927;SDS011;10126;50.876;4.470;2023-06-01T06:14:48;0.30;;;0.30;;
19927;SDS011;10126;50.876;4.470;2023-06-01T06:16:49;0.30;;;0.30;;
19927;SDS011;10126;50.876;4.470;2023-06-01T06:18:50;0.30;;;0.30;;
19927;SDS011;10126;50.876;4.470;2023-06-01T06:20:51;0.30;;;0.30;;
19927;SDS011;10126;50.876;4.470;2023-06-01T06:22:51;0.40;;;0.40;;
19927;SDS011;10126;50.876;4.470;2023-06-01T06:24:52;0.30;;;0.30;;
19927;SDS011;10126;50.876;4.470;2023-06-01T06:26:53;0.30;;;0.30;;
19927;SDS011;10126;50.876;4.470;2023-06-01T06:28:53;0.40;;;0.40;;
19927;SDS011;10126;50.876;4.470;2023-06-01T06:30:57;0.30;;;0.30;;
19927;SDS011;10126;50.876;4.470;2023-06-01T06:32:58;0.30;;;0.30;;
19927;SDS011;10126;50.876;4.470;2023-06-01T06:34:59;0.30;;;0.30;;
19927;SDS011;10126;50.876;4.470;2023-06-01T06:37:00;0.27;;;0.27;;
19927;SDS011;10126;50.876;4.470;2023-06-01T06:39:04;0.20;;;0.20;;
19927;SDS011;10126;50.876;4.470;2023-06-01T06:41:05;0.40;;;0.40;;
19927;SDS011;10126;50.876;4.470;2023-06-01T06:43:06;0.20;;;0.20;;
19927;SDS011;10126;50.876;4.470;2023-06-01T06:45:07;0.30;;;0.30;;
19927;SDS011;10126;50.876;4.470;2023-06-01T06:47:08;0.30;;;0.30;;
19927;SDS011;10126;50.876;4.470;2023-06-01T06:49:08;0.23;;;0.23;;
19927;SDS011;10126;50.876;4.470;2023-06-01T06:51:09;0.30;;;0.30;;
19927;SDS011;10126;50.876;4.470;2023-06-01T06:53:10;0.30;;;0.30;;
19927;SDS011;10126;50.876;4.470;2023-06-01T06:55:11;0.30;;;0.30;;
19927;SDS011;10126;50.876;4.470;2023-06-01T06:57:12;0.30;;;0.30;;
19927;SDS011;10126;50.876;4.470;2023-06-01T06:59:12;0.20;;;0.20;;
19927;SDS011;10126;50.876;4.470;2023-06-01T07:01:14;0.30;;;0.30;;
19927;SDS011;10126;50.876;4.470;2023-06-01T07:03:15;0.30;;;0.30;;
19927;SDS011;10126;50.876;4.470;2023-06-01T07:05:16;0.23;;;0.23;;
19927;SDS011;10126;50.876;4.470;2023-06-01T07:07:17;0.20;;;0.20;;
19927;SDS011;10126;50.876;4.470;2023-06-01T07:09:20;0.20;;;0.20;;
19927;SDS011;10126;50.876;4.470;2023-06-01T07:11:24;0.30;;;0.30;;
19927;SDS011;10126;50.876;4.470;2023-06-01T07:13:26;0.30;;;0.30;;
19927;SDS011;10126;50.876;4.470;2023-06-01T07:15:27;0.30;;;0.30;;
19927;SDS011;10126;50.876;4.470;2023-06-01T07:17:30;0.20;;;0.20;;
19927;SDS011;10126;50.876;4.470;2023-06-01T07:19:31;0.20;;;0.20;;
19927;SDS011;10126;50.876;4.470;2023-06-01T07:21:33;0.20;;;0.20;;
19927;SDS011;10126;50.876;4.470;2023-06-01T07:23:34;0.20;;;0.20;;
19927;SDS011;10126;50.876;4.470;2023-06-01T07:25:34;0.20;;;0.20;;
19927;SDS011;10126;50.876;4.470;2023-06-01T07:27:35;0.20;;;0.20;;
19927;SDS011;10126;50.876;4.470;2023-06-01T07:29:36;0.20;;;0.20;;
19927;SDS011;10126;50.876;4.470;2023-06-01T07:31:37;0.20;;;0.20;;
19927;SDS011;10126;50.876;4.470;2023-06-01T07:33:38;0.20;;;0.20;;
19927;SDS011;10126;50.876;4.470;2023-06-01T07:35:40;0.20;;;0.20;;
19927;SDS011;10126;50.876;4.470;2023-06-01T07:37:41;0.20;;;0.20;;
19927;SDS011;10126;50.876;4.470;2023-06-01T07:39:41;0.20;;;0.20;;
19927;SDS011;10126;50.876;4.470;2023-06-01T07:41:45;0.20;;;0.20;;
19927;SDS011;10126;50.876;4.470;2023-06-01T07:43:46;0.20;;;0.20;;
19927;SDS011;10126;50.876;4.470;2023-06-01T07:45:47;0.20;;;0.20;;
19927;SDS011;10126;50.876;4.470;2023-06-01T07:47:47;0.20;;;0.20;;
19927;SDS011;10126;50.876;4.470;2023-06-01T07:49:48;0.20;;;0.20;;
19927;SDS011;10126;50.876;4.470;2023-06-01T07:51:48;0.20;;;0.20;;
19927;SDS011;10126;50.876;4.470;2023-06-01T07:53:54;0.20;;;0.20;;
19927;SDS011;10126;50.876;4.470;2023-06-01T07:55:57;0.20;;;0.20;;
19927;SDS011;10126;50.876;4.470;2023-06-01T07:57:58;0.20;;;0.20;;
19927;SDS011;10126;50.876;4.470;2023-06-01T07:59:59;0.20;;;0.20;;
19927;SDS011;10126;50.876;4.470;2023-06-01T08:01:59;0.20;;;0.20;;
19927;SDS011;10126;50.876;4.470;2023-06-01T08:04:00;0.20;;;0.20;;
19927;SDS011;10126;50.876;4.470;2023-06-01T08:06:02;0.20;;;0.20;;
19927;SDS011;10126;50.876;4.470;2023-06-01T08:08:05;0.20;;;0.20;;
19927;SDS011;10126;50.876;4.470;2023-06-01T08:10:05;0.20;;;0.20;;
19927;SDS011;10126;50.876;4.470;2023-06-01T08:12:08;0.20;;;0.20;;
19927;SDS011;10126;50.876;4.470;2023-06-01T08:14:14;0.10;;;0.10;;
19927;SDS011;10126;50.876;4.470;2023-06-01T08:16:15;0.20;;;0.20;;
19927;SDS011;10126;50.876;4.470;2023-06-01T08:18:16;0.20;;;0.20;;
19927;SDS011;10126;50.876;4.470;2023-06-01T08:20:17;0.20;;;0.20;;
19927;SDS011;10126;50.876;4.470;2023-06-01T08:22:22;0.20;;;0.20;;
19927;SDS011;10126;50.876;4.470;2023-06-01T08:24:26;0.20;;;0.20;;
19927;SDS011;10126;50.876;4.470;2023-06-01T08:26:28;0.20;;;0.20;;
19927;SDS011;10126;50.876;4.470;2023-06-01T08:28:29;0.20;;;0.20;;
19927;SDS011;10126;50.876;4.470;2023-06-01T08:30:30;0.20;;;0.20;;
19927;SDS011;10126;50.876;4.470;2023-06-01T08:32:31;0.20;;;0.20;;
19927;SDS011;10126;50.876;4.470;2023-06-01T08:34:32;0.20;;;0.20;;
19927;SDS011;10126;50.876;4.470;2023-06-01T08:36:33;0.10;;;0.10;;
19927;SDS011;10126;50.876;4.470;2023-06-01T08:38:33;0.20;;;0.20;;
19927;SDS011;10126;50.876;4.470;2023-06-01T08:40:34;0.10;;;0.10;;
19927;SDS011;10126;50.876;4.470;2023-06-01T08:44:57;0.10;;;0.10;;
19927;SDS011;10126;50.876;4.470;2023-06-01T08:46:58;0.10;;;0.10;;
19927;SDS011;10126;50.876;4.470;2023-06-01T08:48:59;0.10;;;0.10;;
19927;SDS011;10126;50.876;4.470;2023-06-01T08:51:01;0.10;;;0.10;;
19927;SDS011;10126;50.876;4.470;2023-06-01T08:53:02;0.10;;;0.10;;
19927;SDS011;10126;50.876;4.470;2023-06-01T08:55:04;0.10;;;0.10;;
19927;SDS011;10126;50.876;4.470;2023-06-01T08:57:06;0.13;;;0.13;;
19927;SDS011;10126;50.876;4.470;2023-06-01T08:59:09;0.10;;;0.10;;
19927;SDS011;10126;50.876;4.470;2023-06-01T09:01:16;0.10;;;0.10;;
19927;SDS011;10126;50.876;4.470;2023-06-01T09:03:23;0.10;;;0.10;;
19927;SDS011;10126;50.876;4.470;2023-06-01T09:05:24;0.10;;;0.10;;
19927;SDS011;10126;50.876;4.470;2023-06-01T09:07:25;0.10;;;0.10;;
19927;SDS011;10126;50.876;4.470;2023-06-01T09:09:26;0.10;;;0.10;;
19927;SDS011;10126;50.876;4.470;2023-06-01T09:11:26;0.10;;;0.10;;
19927;SDS011;10126;50.876;4.470;2023-06-01T09:13:32;0.10;;;0.10;;
19927;SDS011;10126;50.876;4.470;2023-06-01T09:15:34;0.10;;;0.10;;
19927;SDS011;10126;50.876;4.470;2023-06-01T09:17:49;0.10;;;0.10;;
19927;SDS011;10126;50.876;4.470;2023-06-01T09:19:53;0.10;;;0.10;;
19927;SDS011;10126;50.876;4.470;2023-06-01T09:21:58;0.10;;;0.10;;
19927;SDS011;10126;50.876;4.470;2023-06-01T09:24:20;0.03;;;0.03;;
19927;SDS011;10126;50.876;4.470;2023-06-01T09:26:26;0.00;;;0.00;;
19927;SDS011;10126;50.876;4.470;2023-06-01T09:28:27;0.10;;;0.10;;
19927;SDS011;10126;50.876;4.470;2023-06-01T09:30:38;0.20;;;0.20;;
19927;SDS011;10126;50.876;4.470;2023-06-01T09:32:40;0.10;;;0.10;;
19927;SDS011;10126;50.876;4.470;2023-06-01T09:34:43;0.10;;;0.10;;
19927;SDS011;10126;50.876;4.470;2023-06-01T09:36:46;0.10;;;0.10;;
19927;SDS011;10126;50.876;4.470;2023-06-01T09:38:48;0.10;;;0.10;;
19927;SDS011;10126;50.876;4.470;2023-06-01T09:40:56;0.00;;;0.00;;
19927;SDS011;10126;50.876;4.470;2023-06-01T09:43:00;0.10;;;0.10;;
19927;SDS011;10126;50.876;4.470;2023-06-01T09:45:18;0.10;;;0.10;;
19927;SDS011;10126;50.876;4.470;2023-06-01T09:47:23;0.10;;;0.10;;
19927;SDS011;10126;50.876;4.470;2023-06-01T09:49:29;0.10;;;0.10;;
19927;SDS011;10126;50.876;4.470;2023-06-01T09:51:31;0.00;;;0.00;;
19927;SDS011;10126;50.876;4.470;2023-06-01T09:53:41;0.10;;;0.10;;
19927;SDS011;10126;50.876;4.470;2023-06-01T09:55:56;0.10;;;0.10;;
19927;SDS011;10126;50.876;4.470;2023-06-01T10:00:22;0.10;;;0.10;;
19927;SDS011;10126;50.876;4.470;2023-06-01T10:02:24;0.10;;;0.10;;
19927;SDS011;10126;50.876;4.470;2023-06-01T10:04:26;0.00;;;0.00;;
19927;SDS011;10126;50.876;4.470;2023-06-01T10:06:28;0.10;;;0.10;;
19927;SDS011;10126;50.876;4.470;2023-06-01T10:08:30;0.10;;;0.10;;
19927;SDS011;10126;50.876;4.470;2023-06-01T10:10:32;0.00;;;0.00;;
19927;SDS011;10126;50.876;4.470;2023-06-01T10:12:33;0.10;;;0.10;;
19927;SDS011;10126;50.876;4.470;2023-06-01T10:14:36;0.10;;;0.10;;
19927;SDS011;10126;50.876;4.470;2023-06-01T10:16:38;0.00;;;0.00;;
19927;SDS011;10126;50.876;4.470;2023-06-01T10:18:40;0.10;;;0.10;;
19927;SDS011;10126;50.876;4.470;2023-06-01T10:20:41;0.08;;;0.08;;
19927;SDS011;10126;50.876;4.470;2023-06-01T10:22:42;0.00;;;0.00;;
19927;SDS011;10126;50.876;4.470;2023-06-01T10:24:43;0.05;;;0.05;;
19927;SDS011;10126;50.876;4.470;2023-06-01T10:26:58;0.00;;;0.00;;
19927;SDS011;10126;50.876;4.470;2023-06-01T10:29:05;0.10;;;0.10;;
19927;SDS011;10126;50.876;4.470;2023-06-01T10:35:54;0.20;;;0.20;;
19927;SDS011;10126;50.876;4.470;2023-06-01T10:46:40;0.10;;;0.10;;
19927;SDS011;10126;50.876;4.470;2023-06-01T10:48:54;0.20;;;0.20;;
19927;SDS011;10126;50.876;4.470;2023-06-01T10:51:16;0.10;;;0.10;;
19927;SDS011;10126;50.876;4.470;2023-06-01T10:53:25;0.13;;;0.13;;
19927;SDS011;10126;50.876;4.470;2023-06-01T10:55:28;0.10;;;0.10;;
19927;SDS011;10126;50.876;4.470;2023-06-01T10:57:28;0.20;;;0.20;;
19927;SDS011;10126;50.876;4.470;2023-06-01T10:59:29;0.10;;;0.10;;
19927;SDS011;10126;50.876;4.470;2023-06-01T11:01:30;0.13;;;0.13;;
19927;SDS011;10126;50.876;4.470;2023-06-01T11:03:47;0.10;;;0.10;;
19927;SDS011;10126;50.876;4.470;2023-06-01T11:05:50;0.10;;;0.10;;
19927;SDS011;10126;50.876;4.470;2023-06-01T11:07:51;0.17;;;0.17;;
19927;SDS011;10126;50.876;4.470;2023-06-01T11:09:53;0.10;;;0.10;;
19927;SDS011;10126;50.876;4.470;2023-06-01T11:14:08;0.10;;;0.10;;
19927;SDS011;10126;50.876;4.470;2023-06-01T11:20:57;0.10;;;0.10;;
19927;SDS011;10126;50.876;4.470;2023-06-01T11:22:58;0.10;;;0.10;;
19927;SDS011;10126;50.876;4.470;2023-06-01T11:25:00;0.10;;;0.10;;
19927;SDS011;10126;50.876;4.470;2023-06-01T11:27:05;0.10;;;0.10;;
19927;SDS011;10126;50.876;4.470;2023-06-01T11:29:12;0.10;;;0.10;;
19927;SDS011;10126;50.876;4.470;2023-06-01T11:31:23;0.10;;;0.10;;
19927;SDS011;10126;50.876;4.470;2023-06-01T11:33:27;0.10;;;0.10;;
19927;SDS011;10126;50.876;4.470;2023-06-01T11:35:29;0.10;;;0.10;;
19927;SDS011;10126;50.876;4.470;2023-06-01T11:37:30;0.20;;;0.20;;
19927;SDS011;10126;50.876;4.470;2023-06-01T11:39:31;0.10;;;0.10;;
19927;SDS011;10126;50.876;4.470;2023-06-01T11:41:32;0.20;;;0.20;;
19927;SDS011;10126;50.876;4.470;2023-06-01T11:43:33;0.10;;;0.10;;
19927;SDS011;10126;50.876;4.470;2023-06-01T11:45:34;0.10;;;0.10;;
19927;SDS011;10126;50.876;4.470;2023-06-01T11:47:35;0.10;;;0.10;;
19927;SDS011;10126;50.876;4.470;2023-06-01T11:49:47;0.10;;;0.10;;
19927;SDS011;10126;50.876;4.470;2023-06-01T11:51:50;0.10;;;0.10;;
19927;SDS011;10126;50.876;4.470;2023-06-01T11:53:52;0.10;;;0.10;;
19927;SDS011;10126;50.876;4.470;2023-06-01T11:55:54;0.10;;;0.10;;
19927;SDS011;10126;50.876;4.470;2023-06-01T11:57:55;0.10;;;0.10;;
19927;SDS011;10126;50.876;4.470;2023-06-01T11:59:56;0.10;;;0.10;;
19927;SDS011;10126;50.876;4.470;2023-06-01T12:01:59;0.10;;;0.10;;
19927;SDS011;10126;50.876;4.470;2023-06-01T12:04:06;0.10;;;0.10;;
19927;SDS011;10126;50.876;4.470;2023-06-01T12:06:07;0.10;;;0.10;;
19927;SDS011;10126;50.876;4.470;2023-06-01T12:08:12;0.20;;;0.20;;
19927;SDS011;10126;50.876;4.470;2023-06-01T12:10:18;0.10;;;0.10;;
19927;SDS011;10126;50.876;4.470;2023-06-01T12:12:22;0.17;;;0.17;;
19927;SDS011;10126;50.876;4.470;2023-06-01T12:14:24;0.10;;;0.10;;
19927;SDS011;10126;50.876;4.470;2023-06-01T12:16:43;0.10;;;0.10;;
19927;SDS011;10126;50.876;4.470;2023-06-01T12:18:51;0.10;;;0.10;;
19927;SDS011;10126;50.876;4.470;2023-06-01T12:20:52;0.20;;;0.20;;
19927;SDS011;10126;50.876;4.470;2023-06-01T12:22:53;0.10;;;0.10;;
19927;SDS011;10126;50.876;4.470;2023-06-01T12:24:56;0.17;;;0.17;;
19927;SDS011;10126;50.876;4.470;2023-06-01T12:26:58;0.20;;;0.20;;
19927;SDS011;10126;50.876;4.470;2023-06-01T12:28:59;0.10;;;0.10;;
19927;SDS011;10126;50.876;4.470;2023-06-01T12:31:12;0.13;;;0.13;;
19927;SDS011;10126;50.876;4.470;2023-06-01T12:33:34;0.10;;;0.10;;
19927;SDS011;10126;50.876;4.470;2023-06-01T12:35:48;0.10;;;0.10;;
19927;SDS011;10126;50.876;4.470;2023-06-01T12:38:04;0.10;;;0.10;;
19927;SDS011;10126;50.876;4.470;2023-06-01T12:40:07;0.10;;;0.10;;
19927;SDS011;10126;50.876;4.470;2023-06-01T12:42:10;0.10;;;0.10;;
19927;SDS011;10126;50.876;4.470;2023-06-01T12:44:12;0.10;;;0.10;;
19927;SDS011;10126;50.876;4.470;2023-06-01T12:48:30;0.10;;;0.10;;
19927;SDS011;10126;50.876;4.470;2023-06-01T12:50:42;0.10;;;0.10;;
19927;SDS011;10126;50.876;4.470;2023-06-01T12:52:44;0.10;;;0.10;;
19927;SDS011;10126;50.876;4.470;2023-06-01T12:54:45;0.17;;;0.17;;
19927;SDS011;10126;50.876;4.470;2023-06-01T12:56:49;0.10;;;0.10;;